Terminal Aerodrome Forecast
Issued by NWS

Home | Current Version | Previous Version | Text Only | Print | Product List | Glossary On
Versions: 1 2 3 4 5 6 7 8 9 10 11 12 13 14 15 16 17
000
FTUS45 KTFX 150520
TAFCTB
TAF
KCTB 150520Z 1506/1606 26016G26KT P6SM FEW110 SCT250
     FM151300 26021G34KT P6SM BKN130 BKN250 PROB30 1520/1524 2SM
      -RASN BKN025 OVC040
     FM160000 31012G23KT 2SM -SN SCT015 OVC030
     FM160500 28011G19KT 5SM -SN SCT015 OVC020=

USA.gov is the U.S. government's official web portal to all federal, state and local government web resources and services.